Strona główna
METAR-TAF:

METAR-TAF

Lotnisko :

Baza lotnicza Batajnica

Batajnica, Serbia

Szerokość geograficzna: 44-56-07N, Długość geograficzna: 020-15-27E, wysokość: 86 m

Aktualna obserwacja pogody

Raport powstał 23 minut temu, godzina 13:30 UTC
Wiatr 5 kt od północno-północny zachód, zmienny między południowy zachód i północ
Temperatura 14°C
Wilgotność 24%
Ciśnienie 1033 hPa
Widzialność 10 km lub więcej
Brak chmur poniżej 1500 m i brak chmur cumulonimbus

METAR: LYBT 211330Z 33005KT 220V010 CAVOK 14/M06 Q1033 NOSIG

czas: 14:53 (13:53 UTC)

Prognoza

Raport powstał 2 godziny i 53 minut temu, godzina 11:00 UTC
Prognoza ważna od 21 godzina 12 UTC do 22 godzina 12 UTC
Wiatr 8 kt od północno-północny zachód
Widzialność 10 km lub więcej
Brak chmur poniżej 1500 m i brak chmur cumulonimbus

TAF: LYBT 211100Z 2112/2212 34008KT CAVOK TX14/2113Z TN01/2205Z

Obserwacja i prognoza pogody dla ponad 4000 lotnisk (raport METAR i TAF).

Dostępne stacje oznaczono żółtymi i czerwonymi punktami na mapie.

Najedź kursorem aby zobaczyć nazwę stacji.

Kliknij aby zobaczyć obserwacje i prognozy pogody.

Aby zmienić mapę: kliknij na zielony przycisk z czarnym krzyżykiem, aby powiększyć; na zielony przycisk z myślnikiem, aby pomniejszyć; na zielone strzałki, aby przejść do map sąsiednich.


METAR-TAF: